sensor_id;sensor_type;location;lat;lon;timestamp;temperature;humidity
1205;DHT22;592;48.764;9.174;2023-08-21T00:01:23;25.50;99.90
1205;DHT22;592;48.764;9.174;2023-08-21T00:03:50;25.30;99.90
1205;DHT22;592;48.764;9.174;2023-08-21T00:06:17;25.40;99.90
1205;DHT22;592;48.764;9.174;2023-08-21T00:08:44;25.40;99.90
1205;DHT22;592;48.764;9.174;2023-08-21T00:11:10;25.50;99.90
1205;DHT22;592;48.764;9.174;2023-08-21T00:13:38;25.40;99.90
1205;DHT22;592;48.764;9.174;2023-08-21T00:16:05;25.40;99.90
1205;DHT22;592;48.764;9.174;2023-08-21T00:18:32;25.40;99.90
1205;DHT22;592;48.764;9.174;2023-08-21T00:20:58;25.50;99.90
1205;DHT22;592;48.764;9.174;2023-08-21T00:23:25;25.50;99.90
1205;DHT22;592;48.764;9.174;2023-08-21T00:25:52;25.50;99.90
1205;DHT22;592;48.764;9.174;2023-08-21T00:28:18;25.50;99.90
1205;DHT22;592;48.764;9.174;2023-08-21T00:30:46;25.40;99.90
1205;DHT22;592;48.764;9.174;2023-08-21T00:33:13;25.50;99.90
1205;DHT22;592;48.764;9.174;2023-08-21T00:35:40;25.10;99.90
1205;DHT22;592;48.764;9.174;2023-08-21T00:38:08;24.70;99.90
1205;DHT22;592;48.764;9.174;2023-08-21T00:40:34;24.70;99.90
1205;DHT22;592;48.764;9.174;2023-08-21T00:43:01;24.90;99.90
1205;DHT22;592;48.764;9.174;2023-08-21T00:45:30;25.00;99.90
1205;DHT22;592;48.764;9.174;2023-08-21T00:47:58;25.10;99.90
1205;DHT22;592;48.764;9.174;2023-08-21T00:50:25;25.10;99.90
1205;DHT22;592;48.764;9.174;2023-08-21T00:52:52;25.10;99.90
1205;DHT22;592;48.764;9.174;2023-08-21T00:55:18;25.20;99.90
1205;DHT22;592;48.764;9.174;2023-08-21T00:57:45;25.20;99.90
1205;DHT22;592;48.764;9.174;2023-08-21T01:00:13;25.20;99.90
1205;DHT22;592;48.764;9.174;2023-08-21T01:02:40;24.80;99.90
1205;DHT22;592;48.764;9.174;2023-08-21T01:05:08;24.40;99.90
1205;DHT22;592;48.764;9.174;2023-08-21T01:07:41;24.40;99.90
1205;DHT22;592;48.764;9.174;2023-08-21T01:10:15;24.40;99.90
1205;DHT22;592;48.764;9.174;2023-08-21T01:12:48;24.60;99.90
1205;DHT22;592;48.764;9.174;2023-08-21T01:15:17;24.60;99.90
1205;DHT22;592;48.764;9.174;2023-08-21T01:17:45;24.30;99.90
1205;DHT22;592;48.764;9.174;2023-08-21T01:20:14;24.20;99.90
1205;DHT22;592;48.764;9.174;2023-08-21T01:22:42;24.40;99.90
1205;DHT22;592;48.764;9.174;2023-08-21T01:25:13;24.50;99.90
1205;DHT22;592;48.764;9.174;2023-08-21T01:27:43;24.50;99.90
1205;DHT22;592;48.764;9.174;2023-08-21T01:30:10;24.30;99.90
1205;DHT22;592;48.764;9.174;2023-08-21T01:32:43;24.10;99.90
1205;DHT22;592;48.764;9.174;2023-08-21T01:35:12;24.10;99.90
1205;DHT22;592;48.764;9.174;2023-08-21T01:37:39;24.30;99.90
1205;DHT22;592;48.764;9.174;2023-08-21T01:40:07;24.40;99.90
1205;DHT22;592;48.764;9.174;2023-08-21T01:42:35;24.40;99.90
1205;DHT22;592;48.764;9.174;2023-08-21T01:45:02;24.40;99.90
1205;DHT22;592;48.764;9.174;2023-08-21T01:47:29;24.50;99.90
1205;DHT22;592;48.764;9.174;2023-08-21T01:49:55;24.50;99.90
1205;DHT22;592;48.764;9.174;2023-08-21T01:52:22;24.50;99.90
1205;DHT22;592;48.764;9.174;2023-08-21T01:54:50;24.50;99.90
1205;DHT22;592;48.764;9.174;2023-08-21T01:57:16;24.40;99.90
1205;DHT22;592;48.764;9.174;2023-08-21T01:59:44;24.40;99.90
1205;DHT22;592;48.764;9.174;2023-08-21T02:02:11;24.40;99.90
1205;DHT22;592;48.764;9.174;2023-08-21T02:04:38;24.40;99.90
1205;DHT22;592;48.764;9.174;2023-08-21T02:07:04;24.20;99.90
1205;DHT22;592;48.764;9.174;2023-08-21T02:09:32;23.90;99.90
1205;DHT22;592;48.764;9.174;2023-08-21T02:11:59;23.70;99.90
1205;DHT22;592;48.764;9.174;2023-08-21T02:14:26;23.60;99.90
1205;DHT22;592;48.764;9.174;2023-08-21T02:16:54;23.60;99.90
1205;DHT22;592;48.764;9.174;2023-08-21T02:19:21;23.70;99.90
1205;DHT22;592;48.764;9.174;2023-08-21T02:21:47;23.80;99.90
1205;DHT22;592;48.764;9.174;2023-08-21T02:24:14;23.90;99.90
1205;DHT22;592;48.764;9.174;2023-08-21T02:26:41;23.80;99.90
1205;DHT22;592;48.764;9.174;2023-08-21T02:29:08;23.80;99.90
1205;DHT22;592;48.764;9.174;2023-08-21T02:31:35;23.90;99.90
1205;DHT22;592;48.764;9.174;2023-08-21T02:34:03;23.90;99.90
1205;DHT22;592;48.764;9.174;2023-08-21T02:36:29;23.90;99.90
1205;DHT22;592;48.764;9.174;2023-08-21T02:38:56;24.00;99.90
1205;DHT22;592;48.764;9.174;2023-08-21T02:41:23;24.00;99.90
1205;DHT22;592;48.764;9.174;2023-08-21T02:43:50;23.90;99.90
1205;DHT22;592;48.764;9.174;2023-08-21T02:46:16;24.00;99.90
1205;DHT22;592;48.764;9.174;2023-08-21T02:48:43;23.90;99.90
1205;DHT22;592;48.764;9.174;2023-08-21T02:51:11;23.80;99.90
1205;DHT22;592;48.764;9.174;2023-08-21T02:53:38;23.50;99.90
1205;DHT22;592;48.764;9.174;2023-08-21T02:56:05;23.30;99.90
1205;DHT22;592;48.764;9.174;2023-08-21T02:58:31;23.30;99.90
1205;DHT22;592;48.764;9.174;2023-08-21T03:00:58;23.50;99.90
1205;DHT22;592;48.764;9.174;2023-08-21T03:03:25;23.60;99.90
1205;DHT22;592;48.764;9.174;2023-08-21T03:05:51;23.50;99.90
1205;DHT22;592;48.764;9.174;2023-08-21T03:08:19;23.50;99.90
1205;DHT22;592;48.764;9.174;2023-08-21T03:10:46;23.50;99.90
1205;DHT22;592;48.764;9.174;2023-08-21T03:13:13;23.60;99.90
1205;DHT22;592;48.764;9.174;2023-08-21T03:15:39;23.60;99.90
1205;DHT22;592;48.764;9.174;2023-08-21T03:18:06;23.60;99.90
1205;DHT22;592;48.764;9.174;2023-08-21T03:20:33;23.60;99.90
1205;DHT22;592;48.764;9.174;2023-08-21T03:22:59;23.60;99.90
1205;DHT22;592;48.764;9.174;2023-08-21T03:25:28;23.60;99.90
1205;DHT22;592;48.764;9.174;2023-08-21T03:27:55;23.10;99.90
1205;DHT22;592;48.764;9.174;2023-08-21T03:30:22;22.60;99.90
1205;DHT22;592;48.764;9.174;2023-08-21T03:32:49;22.50;99.90
1205;DHT22;592;48.764;9.174;2023-08-21T03:35:15;22.60;99.90
1205;DHT22;592;48.764;9.174;2023-08-21T03:37:42;22.90;99.90
1205;DHT22;592;48.764;9.174;2023-08-21T03:40:09;23.00;99.90
1205;DHT22;592;48.764;9.174;2023-08-21T03:42:38;23.00;99.90
1205;DHT22;592;48.764;9.174;2023-08-21T03:45:05;23.10;99.90
1205;DHT22;592;48.764;9.174;2023-08-21T03:47:32;23.20;99.90
1205;DHT22;592;48.764;9.174;2023-08-21T03:49:59;23.10;99.90
1205;DHT22;592;48.764;9.174;2023-08-21T03:52:25;23.20;99.90
1205;DHT22;592;48.764;9.174;2023-08-21T03:54:52;23.10;99.90
1205;DHT22;592;48.764;9.174;2023-08-21T03:57:19;23.10;99.90
1205;DHT22;592;48.764;9.174;2023-08-21T03:59:47;23.10;99.90
1205;DHT22;592;48.764;9.174;2023-08-21T04:02:14;23.20;99.90
1205;DHT22;592;48.764;9.174;2023-08-21T04:04:40;23.20;99.90
1205;DHT22;592;48.764;9.174;2023-08-21T04:07:07;23.20;99.90
1205;DHT22;592;48.764;9.174;2023-08-21T04:09:34;23.20;99.90
1205;DHT22;592;48.764;9.174;2023-08-21T04:12:00;23.20;99.90
1205;DHT22;592;48.764;9.174;2023-08-21T04:14:27;23.20;99.90
1205;DHT22;592;48.764;9.174;2023-08-21T04:16:55;23.20;99.90
1205;DHT22;592;48.764;9.174;2023-08-21T04:19:22;23.20;99.90
1205;DHT22;592;48.764;9.174;2023-08-21T04:21:48;23.10;99.90
1205;DHT22;592;48.764;9.174;2023-08-21T04:24:15;23.10;99.90
1205;DHT22;592;48.764;9.174;2023-08-21T04:26:42;23.10;99.90
1205;DHT22;592;48.764;9.174;2023-08-21T04:29:08;23.10;99.90
1205;DHT22;592;48.764;9.174;2023-08-21T04:31:35;23.10;99.90
1205;DHT22;592;48.764;9.174;2023-08-21T04:34:03;23.10;99.90
1205;DHT22;592;48.764;9.174;2023-08-21T04:36:30;23.10;99.90
1205;DHT22;592;48.764;9.174;2023-08-21T04:38:57;23.10;99.90
1205;DHT22;592;48.764;9.174;2023-08-21T04:41:23;22.80;99.90
1205;DHT22;592;48.764;9.174;2023-08-21T04:43:50;22.70;99.90
1205;DHT22;592;48.764;9.174;2023-08-21T04:46:17;22.60;99.90
1205;DHT22;592;48.764;9.174;2023-08-21T04:48:45;22.80;99.90
1205;DHT22;592;48.764;9.174;2023-08-21T04:51:13;22.90;99.90
1205;DHT22;592;48.764;9.174;2023-08-21T04:53:40;23.00;99.90
1205;DHT22;592;48.764;9.174;2023-08-21T04:56:07;22.90;99.90
1205;DHT22;592;48.764;9.174;2023-08-21T04:58:33;22.70;99.90
1205;DHT22;592;48.764;9.174;2023-08-21T05:01:00;22.60;99.90
1205;DHT22;592;48.764;9.174;2023-08-21T05:03:27;22.40;99.90
1205;DHT22;592;48.764;9.174;2023-08-21T05:05:54;22.60;99.90
1205;DHT22;592;48.764;9.174;2023-08-21T05:08:22;22.90;99.90
1205;DHT22;592;48.764;9.174;2023-08-21T05:10:54;23.20;99.90
1205;DHT22;592;48.764;9.174;2023-08-21T05:13:21;23.00;99.90
1205;DHT22;592;48.764;9.174;2023-08-21T05:15:51;22.70;99.90
1205;DHT22;592;48.764;9.174;2023-08-21T05:18:18;22.50;99.90
1205;DHT22;592;48.764;9.174;2023-08-21T05:20:46;22.60;99.90
1205;DHT22;592;48.764;9.174;2023-08-21T05:23:13;22.80;99.90
1205;DHT22;592;48.764;9.174;2023-08-21T05:25:41;23.20;99.90
1205;DHT22;592;48.764;9.174;2023-08-21T05:28:08;23.40;99.90
1205;DHT22;592;48.764;9.174;2023-08-21T05:30:35;23.50;99.90
1205;DHT22;592;48.764;9.174;2023-08-21T05:33:02;23.60;99.90
1205;DHT22;592;48.764;9.174;2023-08-21T05:35:32;23.80;99.90
1205;DHT22;592;48.764;9.174;2023-08-21T05:37:59;24.00;99.90
1205;DHT22;592;48.764;9.174;2023-08-21T05:40:26;24.10;99.90
1205;DHT22;592;48.764;9.174;2023-08-21T05:42:54;23.80;99.90
1205;DHT22;592;48.764;9.174;2023-08-21T05:45:21;23.60;99.90
1205;DHT22;592;48.764;9.174;2023-08-21T05:47:47;23.50;99.90
1205;DHT22;592;48.764;9.174;2023-08-21T05:50:14;23.80;99.90
1205;DHT22;592;48.764;9.174;2023-08-21T05:52:41;24.10;99.90
1205;DHT22;592;48.764;9.174;2023-08-21T05:55:08;24.40;99.90
1205;DHT22;592;48.764;9.174;2023-08-21T05:57:34;24.50;99.90
1205;DHT22;592;48.764;9.174;2023-08-21T06:00:03;24.70;99.90
1205;DHT22;592;48.764;9.174;2023-08-21T06:02:33;24.80;99.90
1205;DHT22;592;48.764;9.174;2023-08-21T06:05:00;24.90;99.90
1205;DHT22;592;48.764;9.174;2023-08-21T06:07:27;24.90;99.90
1205;DHT22;592;48.764;9.174;2023-08-21T06:09:54;24.80;99.90
1205;DHT22;592;48.764;9.174;2023-08-21T06:12:20;25.00;99.90
1205;DHT22;592;48.764;9.174;2023-08-21T06:14:47;25.20;99.90
1205;DHT22;592;48.764;9.174;2023-08-21T06:17:15;25.40;99.90
1205;DHT22;592;48.764;9.174;2023-08-21T06:19:42;25.40;99.90
1205;DHT22;592;48.764;9.174;2023-08-21T06:22:09;25.30;99.90
1205;DHT22;592;48.764;9.174;2023-08-21T06:24:35;25.50;99.90
1205;DHT22;592;48.764;9.174;2023-08-21T06:27:02;25.60;99.90
1205;DHT22;592;48.764;9.174;2023-08-21T06:29:29;25.60;99.90
1205;DHT22;592;48.764;9.174;2023-08-21T06:31:55;25.70;99.90
1205;DHT22;592;48.764;9.174;2023-08-21T06:34:24;25.80;99.90
1205;DHT22;592;48.764;9.174;2023-08-21T06:36:50;26.10;99.90
1205;DHT22;592;48.764;9.174;2023-08-21T06:39:17;26.60;99.90
1205;DHT22;592;48.764;9.174;2023-08-21T06:41:44;27.60;99.90
1205;DHT22;592;48.764;9.174;2023-08-21T06:44:10;28.70;99.90
1205;DHT22;592;48.764;9.174;2023-08-21T06:46:37;29.40;99.90
1205;DHT22;592;48.764;9.174;2023-08-21T06:49:04;29.70;99.90
1205;DHT22;592;48.764;9.174;2023-08-21T06:51:32;29.60;99.90
1205;DHT22;592;48.764;9.174;2023-08-21T06:53:58;29.60;99.90
1205;DHT22;592;48.764;9.174;2023-08-21T06:56:25;29.00;99.90
1205;DHT22;592;48.764;9.174;2023-08-21T06:58:52;28.40;99.90
1205;DHT22;592;48.764;9.174;2023-08-21T07:01:20;28.20;99.90
1205;DHT22;592;48.764;9.174;2023-08-21T07:03:47;27.60;99.90
1205;DHT22;592;48.764;9.174;2023-08-21T07:06:14;27.70;99.90
1205;DHT22;592;48.764;9.174;2023-08-21T07:08:42;27.70;99.90
1205;DHT22;592;48.764;9.174;2023-08-21T07:11:08;27.70;99.90
1205;DHT22;592;48.764;9.174;2023-08-21T07:13:35;27.80;99.90
1205;DHT22;592;48.764;9.174;2023-08-21T07:16:02;27.80;99.90
1205;DHT22;592;48.764;9.174;2023-08-21T07:18:32;27.70;99.90
1205;DHT22;592;48.764;9.174;2023-08-21T07:20:59;27.80;99.90
1205;DHT22;592;48.764;9.174;2023-08-21T07:23:26;27.80;99.90
1205;DHT22;592;48.764;9.174;2023-08-21T07:25:54;27.70;99.90
1205;DHT22;592;48.764;9.174;2023-08-21T07:28:21;27.80;99.90
1205;DHT22;592;48.764;9.174;2023-08-21T07:30:48;27.80;99.90
1205;DHT22;592;48.764;9.174;2023-08-21T07:33:14;27.70;99.90
1205;DHT22;592;48.764;9.174;2023-08-21T07:35:41;27.50;99.90
1205;DHT22;592;48.764;9.174;2023-08-21T07:38:09;27.60;99.90
1205;DHT22;592;48.764;9.174;2023-08-21T07:40:36;27.80;99.90
1205;DHT22;592;48.764;9.174;2023-08-21T07:43:04;27.90;99.90
1205;DHT22;592;48.764;9.174;2023-08-21T07:45:31;28.00;99.90
1205;DHT22;592;48.764;9.174;2023-08-21T07:47:57;28.00;99.90
1205;DHT22;592;48.764;9.174;2023-08-21T07:50:24;28.10;99.90
1205;DHT22;592;48.764;9.174;2023-08-21T07:52:51;28.20;99.90
1205;DHT22;592;48.764;9.174;2023-08-21T07:55:18;28.10;99.90
1205;DHT22;592;48.764;9.174;2023-08-21T07:57:44;28.00;99.90
1205;DHT22;592;48.764;9.174;2023-08-21T08:00:13;28.10;99.90
1205;DHT22;592;48.764;9.174;2023-08-21T08:02:40;28.10;99.90
1205;DHT22;592;48.764;9.174;2023-08-21T08:05:08;28.30;99.90
1205;DHT22;592;48.764;9.174;2023-08-21T08:07:35;28.30;99.90
1205;DHT22;592;48.764;9.174;2023-08-21T08:10:02;28.40;99.90
1205;DHT22;592;48.764;9.174;2023-08-21T08:12:29;28.40;99.90
1205;DHT22;592;48.764;9.174;2023-08-21T08:14:55;28.30;99.90
1205;DHT22;592;48.764;9.174;2023-08-21T08:17:23;28.40;99.90
1205;DHT22;592;48.764;9.174;2023-08-21T08:19:50;28.60;99.90
1205;DHT22;592;48.764;9.174;2023-08-21T08:22:17;28.60;99.90
1205;DHT22;592;48.764;9.174;2023-08-21T08:24:43;28.60;99.90
1205;DHT22;592;48.764;9.174;2023-08-21T08:27:10;28.80;99.90
1205;DHT22;592;48.764;9.174;2023-08-21T08:29:37;28.90;99.90
1205;DHT22;592;48.764;9.174;2023-08-21T08:32:04;28.90;99.90
1205;DHT22;592;48.764;9.174;2023-08-21T08:34:33;28.90;99.90
1205;DHT22;592;48.764;9.174;2023-08-21T08:36:59;29.00;99.90
1205;DHT22;592;48.764;9.174;2023-08-21T08:39:26;29.00;99.90
1205;DHT22;592;48.764;9.174;2023-08-21T08:41:56;29.10;99.90
1205;DHT22;592;48.764;9.174;2023-08-21T08:44:25;29.00;99.90
1205;DHT22;592;48.764;9.174;2023-08-21T08:46:52;28.80;99.90
1205;DHT22;592;48.764;9.174;2023-08-21T08:49:20;28.70;99.90
1205;DHT22;592;48.764;9.174;2023-08-21T08:51:49;28.70;99.90
1205;DHT22;592;48.764;9.174;2023-08-21T08:54:17;28.80;99.90
1205;DHT22;592;48.764;9.174;2023-08-21T08:56:44;28.80;99.90
1205;DHT22;592;48.764;9.174;2023-08-21T08:59:11;29.00;99.90
1205;DHT22;592;48.764;9.174;2023-08-21T09:01:40;29.00;99.90
1205;DHT22;592;48.764;9.174;2023-08-21T09:04:08;29.00;99.90
1205;DHT22;592;48.764;9.174;2023-08-21T09:06:35;29.00;99.90
1205;DHT22;592;48.764;9.174;2023-08-21T09:09:03;28.90;99.90
1205;DHT22;592;48.764;9.174;2023-08-21T09:11:31;28.80;99.90
1205;DHT22;592;48.764;9.174;2023-08-21T09:13:59;29.00;99.90
1205;DHT22;592;48.764;9.174;2023-08-21T09:16:26;29.10;99.90
1205;DHT22;592;48.764;9.174;2023-08-21T09:18:53;29.20;99.90
1205;DHT22;592;48.764;9.174;2023-08-21T09:21:22;29.40;99.90
1205;DHT22;592;48.764;9.174;2023-08-21T09:23:55;29.30;99.90
1205;DHT22;592;48.764;9.174;2023-08-21T09:26:24;29.20;99.90
1205;DHT22;592;48.764;9.174;2023-08-21T09:28:52;29.20;99.90
1205;DHT22;592;48.764;9.174;2023-08-21T09:31:22;29.30;99.90
1205;DHT22;592;48.764;9.174;2023-08-21T09:33:55;29.40;99.90
1205;DHT22;592;48.764;9.174;2023-08-21T09:36:22;29.40;99.90
1205;DHT22;592;48.764;9.174;2023-08-21T09:38:50;29.40;99.90
1205;DHT22;592;48.764;9.174;2023-08-21T09:41:19;29.30;99.90
1205;DHT22;592;48.764;9.174;2023-08-21T09:43:48;29.30;99.70
1205;DHT22;592;48.764;9.174;2023-08-21T09:46:15;29.40;99.90
1205;DHT22;592;48.764;9.174;2023-08-21T09:48:44;29.40;99.90
1205;DHT22;592;48.764;9.174;2023-08-21T09:51:11;29.50;99.90
1205;DHT22;592;48.764;9.174;2023-08-21T09:53:38;29.70;99.90
1205;DHT22;592;48.764;9.174;2023-08-21T09:56:06;29.60;99.70
1205;DHT22;592;48.764;9.174;2023-08-21T09:58:33;29.60;99.70
1205;DHT22;592;48.764;9.174;2023-08-21T10:01:04;29.70;99.80
1205;DHT22;592;48.764;9.174;2023-08-21T10:03:38;29.60;99.60
1205;DHT22;592;48.764;9.174;2023-08-21T10:06:05;29.60;99.00
1205;DHT22;592;48.764;9.174;2023-08-21T10:08:36;29.80;98.40
1205;DHT22;592;48.764;9.174;2023-08-21T10:11:05;29.80;98.30
1205;DHT22;592;48.764;9.174;2023-08-21T10:13:32;29.80;98.00
1205;DHT22;592;48.764;9.174;2023-08-21T10:16:01;29.80;98.10
1205;DHT22;592;48.764;9.174;2023-08-21T10:18:32;30.00;98.60
1205;DHT22;592;48.764;9.174;2023-08-21T10:21:11;29.90;98.20
1205;DHT22;592;48.764;9.174;2023-08-21T10:23:38;29.90;98.30
1205;DHT22;592;48.764;9.174;2023-08-21T10:26:07;30.00;98.60
1205;DHT22;592;48.764;9.174;2023-08-21T10:28:53;29.70;98.30
1205;DHT22;592;48.764;9.174;2023-08-21T10:31:29;30.00;98.70
1205;DHT22;592;48.764;9.174;2023-08-21T10:33:57;30.10;98.70
1205;DHT22;592;48.764;9.174;2023-08-21T10:36:39;30.30;98.40
1205;DHT22;592;48.764;9.174;2023-08-21T10:39:13;30.10;97.90
1205;DHT22;592;48.764;9.174;2023-08-21T10:41:41;30.10;98.10
1205;DHT22;592;48.764;9.174;2023-08-21T10:44:07;30.00;97.60
1205;DHT22;592;48.764;9.174;2023-08-21T10:46:51;30.10;98.10
1205;DHT22;592;48.764;9.174;2023-08-21T10:49:17;30.10;98.20
1205;DHT22;592;48.764;9.174;2023-08-21T10:51:44;30.20;98.20
1205;DHT22;592;48.764;9.174;2023-08-21T10:54:12;30.40;97.90
1205;DHT22;592;48.764;9.174;2023-08-21T10:56:39;30.20;97.30
1205;DHT22;592;48.764;9.174;2023-08-21T10:59:06;30.20;97.50
1205;DHT22;592;48.764;9.174;2023-08-21T11:01:42;30.20;97.60
1205;DHT22;592;48.764;9.174;2023-08-21T11:04:11;30.40;97.90
1205;DHT22;592;48.764;9.174;2023-08-21T11:06:38;30.50;97.40
1205;DHT22;592;48.764;9.174;2023-08-21T11:09:05;30.40;97.30
1205;DHT22;592;48.764;9.174;2023-08-21T11:11:34;30.50;97.00
1205;DHT22;592;48.764;9.174;2023-08-21T11:14:02;30.50;97.30
1205;DHT22;592;48.764;9.174;2023-08-21T11:16:29;30.60;97.00
1205;DHT22;592;48.764;9.174;2023-08-21T11:18:56;30.40;97.00
1205;DHT22;592;48.764;9.174;2023-08-21T11:21:24;30.50;97.20
1205;DHT22;592;48.764;9.174;2023-08-21T11:23:51;30.70;96.90
1205;DHT22;592;48.764;9.174;2023-08-21T11:26:18;30.60;96.60
1205;DHT22;592;48.764;9.174;2023-08-21T11:28:45;30.50;96.80
1205;DHT22;592;48.764;9.174;2023-08-21T11:31:12;30.70;97.20
1205;DHT22;592;48.764;9.174;2023-08-21T11:33:39;30.80;97.10
1205;DHT22;592;48.764;9.174;2023-08-21T11:36:06;30.80;96.40
1205;DHT22;592;48.764;9.174;2023-08-21T11:38:34;30.90;96.50
1205;DHT22;592;48.764;9.174;2023-08-21T11:41:02;30.90;96.60
1205;DHT22;592;48.764;9.174;2023-08-21T11:43:35;31.20;97.00
1205;DHT22;592;48.764;9.174;2023-08-21T11:46:02;31.20;96.40
1205;DHT22;592;48.764;9.174;2023-08-21T11:48:29;31.00;95.70
1205;DHT22;592;48.764;9.174;2023-08-21T11:50:56;31.00;96.30
1205;DHT22;592;48.764;9.174;2023-08-21T11:53:34;30.90;95.90
1205;DHT22;592;48.764;9.174;2023-08-21T11:56:01;30.90;95.80
1205;DHT22;592;48.764;9.174;2023-08-21T11:58:28;31.00;95.80
1205;DHT22;592;48.764;9.174;2023-08-21T12:01:02;30.90;95.70
1205;DHT22;592;48.764;9.174;2023-08-21T12:03:29;30.90;95.60
1205;DHT22;592;48.764;9.174;2023-08-21T12:05:56;31.10;95.90
1205;DHT22;592;48.764;9.174;2023-08-21T12:08:23;31.20;96.10
1205;DHT22;592;48.764;9.174;2023-08-21T12:10:51;31.50;95.50
1205;DHT22;592;48.764;9.174;2023-08-21T12:13:18;31.60;95.20
1205;DHT22;592;48.764;9.174;2023-08-21T12:15:45;31.60;95.30
1205;DHT22;592;48.764;9.174;2023-08-21T12:18:11;31.80;95.50
1205;DHT22;592;48.764;9.174;2023-08-21T12:20:38;31.80;94.70
1205;DHT22;592;48.764;9.174;2023-08-21T12:23:05;31.60;94.50
1205;DHT22;592;48.764;9.174;2023-08-21T12:25:31;31.60;94.70
1205;DHT22;592;48.764;9.174;2023-08-21T12:27:59;31.70;95.50
1205;DHT22;592;48.764;9.174;2023-08-21T12:30:26;31.70;94.50
1205;DHT22;592;48.764;9.174;2023-08-21T12:32:53;31.70;94.40
1205;DHT22;592;48.764;9.174;2023-08-21T12:35:19;31.50;94.70
1205;DHT22;592;48.764;9.174;2023-08-21T12:37:46;31.40;94.50
1205;DHT22;592;48.764;9.174;2023-08-21T12:40:13;31.50;94.40
1205;DHT22;592;48.764;9.174;2023-08-21T12:42:39;31.40;94.50
1205;DHT22;592;48.764;9.174;2023-08-21T12:45:09;31.40;94.50
1205;DHT22;592;48.764;9.174;2023-08-21T12:47:36;31.50;94.80
1205;DHT22;592;48.764;9.174;2023-08-21T12:50:03;31.40;94.60
1205;DHT22;592;48.764;9.174;2023-08-21T12:52:30;31.50;94.80
1205;DHT22;592;48.764;9.174;2023-08-21T12:54:57;31.50;94.40
1205;DHT22;592;48.764;9.174;2023-08-21T12:57:24;31.50;94.80
1205;DHT22;592;48.764;9.174;2023-08-21T12:59:51;31.50;94.40
1205;DHT22;592;48.764;9.174;2023-08-21T13:02:19;31.70;94.50
1205;DHT22;592;48.764;9.174;2023-08-21T13:04:48;31.80;94.50
1205;DHT22;592;48.764;9.174;2023-08-21T13:07:15;31.80;94.10
1205;DHT22;592;48.764;9.174;2023-08-21T13:09:42;31.80;94.50
1205;DHT22;592;48.764;9.174;2023-08-21T13:12:08;31.80;93.80
1205;DHT22;592;48.764;9.174;2023-08-21T13:14:35;31.90;94.10
1205;DHT22;592;48.764;9.174;2023-08-21T13:17:02;32.20;94.50
1205;DHT22;592;48.764;9.174;2023-08-21T13:19:30;32.00;93.50
1205;DHT22;592;48.764;9.174;2023-08-21T13:21:56;32.20;93.80
1205;DHT22;592;48.764;9.174;2023-08-21T13:24:23;32.40;94.30
1205;DHT22;592;48.764;9.174;2023-08-21T13:26:51;32.30;93.50
1205;DHT22;592;48.764;9.174;2023-08-21T13:29:17;32.10;93.70
1205;DHT22;592;48.764;9.174;2023-08-21T13:31:44;32.30;93.70
1205;DHT22;592;48.764;9.174;2023-08-21T13:34:11;32.30;94.40
1205;DHT22;592;48.764;9.174;2023-08-21T13:36:39;32.80;94.10
1205;DHT22;592;48.764;9.174;2023-08-21T13:39:06;33.80;93.00
1205;DHT22;592;48.764;9.174;2023-08-21T13:41:34;34.40;92.50
1205;DHT22;592;48.764;9.174;2023-08-21T13:44:00;35.20;91.50
1205;DHT22;592;48.764;9.174;2023-08-21T13:46:27;35.10;92.10
1205;DHT22;592;48.764;9.174;2023-08-21T13:48:54;34.60;91.30
1205;DHT22;592;48.764;9.174;2023-08-21T13:51:20;34.40;91.50
1205;DHT22;592;48.764;9.174;2023-08-21T13:53:48;33.80;91.60
1205;DHT22;592;48.764;9.174;2023-08-21T13:56:15;33.30;92.20
1205;DHT22;592;48.764;9.174;2023-08-21T13:58:42;33.10;92.30
1205;DHT22;592;48.764;9.174;2023-08-21T14:01:08;33.10;92.30
1205;DHT22;592;48.764;9.174;2023-08-21T14:03:35;33.30;92.30
1205;DHT22;592;48.764;9.174;2023-08-21T14:06:02;33.60;92.50
1205;DHT22;592;48.764;9.174;2023-08-21T14:08:29;33.30;92.20
1205;DHT22;592;48.764;9.174;2023-08-21T14:10:57;33.70;92.20
1205;DHT22;592;48.764;9.174;2023-08-21T14:13:24;33.80;92.30
1205;DHT22;592;48.764;9.174;2023-08-21T14:15:51;33.60;92.10
1205;DHT22;592;48.764;9.174;2023-08-21T14:18:17;34.00;91.90
1205;DHT22;592;48.764;9.174;2023-08-21T14:20:44;34.40;91.40
1205;DHT22;592;48.764;9.174;2023-08-21T14:23:11;34.20;91.20
1205;DHT22;592;48.764;9.174;2023-08-21T14:25:37;34.10;91.10
1205;DHT22;592;48.764;9.174;2023-08-21T14:28:06;34.00;90.90
1205;DHT22;592;48.764;9.174;2023-08-21T14:30:32;33.80;91.40
1205;DHT22;592;48.764;9.174;2023-08-21T14:32:59;34.00;91.60
1205;DHT22;592;48.764;9.174;2023-08-21T14:35:26;34.00;91.10
1205;DHT22;592;48.764;9.174;2023-08-21T14:37:52;34.30;91.00
1205;DHT22;592;48.764;9.174;2023-08-21T14:40:19;34.00;91.00
1205;DHT22;592;48.764;9.174;2023-08-21T14:42:46;33.90;91.50
1205;DHT22;592;48.764;9.174;2023-08-21T14:45:14;34.60;91.20
1205;DHT22;592;48.764;9.174;2023-08-21T14:47:41;35.30;90.50
1205;DHT22;592;48.764;9.174;2023-08-21T14:50:09;35.70;90.50
1205;DHT22;592;48.764;9.174;2023-08-21T14:52:36;35.60;88.20
1205;DHT22;592;48.764;9.174;2023-08-21T14:55:03;35.70;88.90
1205;DHT22;592;48.764;9.174;2023-08-21T14:57:30;35.50;89.10
1205;DHT22;592;48.764;9.174;2023-08-21T14:59:56;35.60;89.70
1205;DHT22;592;48.764;9.174;2023-08-21T15:02:24;35.50;88.20
1205;DHT22;592;48.764;9.174;2023-08-21T15:04:51;34.80;89.60
1205;DHT22;592;48.764;9.174;2023-08-21T15:07:18;34.50;90.40
1205;DHT22;592;48.764;9.174;2023-08-21T15:09:44;34.30;90.30
1205;DHT22;592;48.764;9.174;2023-08-21T15:12:11;34.40;90.60
1205;DHT22;592;48.764;9.174;2023-08-21T15:14:38;33.70;90.90
1205;DHT22;592;48.764;9.174;2023-08-21T15:17:04;33.40;91.00
1205;DHT22;592;48.764;9.174;2023-08-21T15:19:32;33.10;91.60
1205;DHT22;592;48.764;9.174;2023-08-21T15:21:59;33.10;91.80
1205;DHT22;592;48.764;9.174;2023-08-21T15:24:26;33.20;91.60
1205;DHT22;592;48.764;9.174;2023-08-21T15:26:52;33.00;91.50
1205;DHT22;592;48.764;9.174;2023-08-21T15:29:19;32.80;92.00
1205;DHT22;592;48.764;9.174;2023-08-21T15:31:46;32.60;92.10
1205;DHT22;592;48.764;9.174;2023-08-21T15:34:12;32.60;92.30
1205;DHT22;592;48.764;9.174;2023-08-21T15:36:40;32.50;92.30
1205;DHT22;592;48.764;9.174;2023-08-21T15:39:07;32.40;92.70
1205;DHT22;592;48.764;9.174;2023-08-21T15:41:34;32.20;92.50
1205;DHT22;592;48.764;9.174;2023-08-21T15:44:00;32.30;92.70
1205;DHT22;592;48.764;9.174;2023-08-21T15:46:27;32.10;93.00
1205;DHT22;592;48.764;9.174;2023-08-21T15:48:54;32.00;92.90
1205;DHT22;592;48.764;9.174;2023-08-21T15:51:21;32.10;93.10
1205;DHT22;592;48.764;9.174;2023-08-21T15:53:49;32.10;93.00
1205;DHT22;592;48.764;9.174;2023-08-21T15:56:15;32.10;93.10
1205;DHT22;592;48.764;9.174;2023-08-21T15:58:42;32.10;93.10
1205;DHT22;592;48.764;9.174;2023-08-21T16:01:09;32.10;93.20
1205;DHT22;592;48.764;9.174;2023-08-21T16:03:35;32.00;93.10
1205;DHT22;592;48.764;9.174;2023-08-21T16:06:03;31.90;93.20
1205;DHT22;592;48.764;9.174;2023-08-21T16:08:30;31.90;93.50
1205;DHT22;592;48.764;9.174;2023-08-21T16:10:58;31.90;93.80
1205;DHT22;592;48.764;9.174;2023-08-21T16:13:25;31.90;93.90
1205;DHT22;592;48.764;9.174;2023-08-21T16:15:51;31.70;94.20
1205;DHT22;592;48.764;9.174;2023-08-21T16:18:18;31.60;94.10